sensor_id;sensor_type;location;lat;lon;timestamp;temperature;humidity
20162;DHT22;51382;53.180;15.414;2022-11-18T00:13:47;0.20;99.90
20162;DHT22;51382;53.180;15.414;2022-11-18T00:29:16;-0.20;99.90
20162;DHT22;51382;53.180;15.414;2022-11-18T00:44:27;-0.70;99.90
20162;DHT22;51382;53.180;15.414;2022-11-18T00:59:33;-1.20;99.90
20162;DHT22;51382;53.180;15.414;2022-11-18T01:14:43;-1.40;99.90
20162;DHT22;51382;53.180;15.414;2022-11-18T01:29:54;-1.50;99.90
20162;DHT22;51382;53.180;15.414;2022-11-18T01:45:09;-1.50;99.90
20162;DHT22;51382;53.180;15.414;2022-11-18T02:00:23;-1.70;99.90
20162;DHT22;51382;53.180;15.414;2022-11-18T02:15:36;-1.80;99.90
20162;DHT22;51382;53.180;15.414;2022-11-18T02:30:55;-1.90;99.90
20162;DHT22;51382;53.180;15.414;2022-11-18T02:46:11;-1.90;99.90
20162;DHT22;51382;53.180;15.414;2022-11-18T03:01:27;-2.10;99.90
20162;DHT22;51382;53.180;15.414;2022-11-18T03:16:41;-1.60;99.90
20162;DHT22;51382;53.180;15.414;2022-11-18T03:32:01;-1.20;99.90
20162;DHT22;51382;53.180;15.414;2022-11-18T03:47:16;-1.00;99.90
20162;DHT22;51382;53.180;15.414;2022-11-18T04:02:31;-1.20;99.90
20162;DHT22;51382;53.180;15.414;2022-11-18T04:17:37;-1.50;99.90
20162;DHT22;51382;53.180;15.414;2022-11-18T04:32:50;-1.40;99.90
20162;DHT22;51382;53.180;15.414;2022-11-18T04:48:01;-0.80;99.90
20162;DHT22;51382;53.180;15.414;2022-11-18T05:03:12;-1.00;99.90
20162;DHT22;51382;53.180;15.414;2022-11-18T05:18:19;-1.20;99.90
20162;DHT22;51382;53.180;15.414;2022-11-18T05:33:30;-1.20;99.90
20162;DHT22;51382;53.180;15.414;2022-11-18T05:48:41;-1.00;99.90
20162;DHT22;51382;53.180;15.414;2022-11-18T06:03:55;-1.00;99.90
20162;DHT22;51382;53.180;15.414;2022-11-18T06:19:07;-0.90;99.90
20162;DHT22;51382;53.180;15.414;2022-11-18T06:34:19;-0.80;99.90
20162;DHT22;51382;53.180;15.414;2022-11-18T06:49:25;-0.80;99.90
20162;DHT22;51382;53.180;15.414;2022-11-18T07:04:36;-0.70;99.90
20162;DHT22;51382;53.180;15.414;2022-11-18T07:19:47;-0.80;99.90
20162;DHT22;51382;53.180;15.414;2022-11-18T07:34:58;2.70;99.90
20162;DHT22;51382;53.180;15.414;2022-11-18T07:50:12;4.20;99.90
20162;DHT22;51382;53.180;15.414;2022-11-18T08:05:23;-0.40;99.90
20162;DHT22;51382;53.180;15.414;2022-11-18T08:20:34;-0.40;99.90
20162;DHT22;51382;53.180;15.414;2022-11-18T08:35:45;-0.30;99.90
20162;DHT22;51382;53.180;15.414;2022-11-18T08:50:57;-0.30;99.90
20162;DHT22;51382;53.180;15.414;2022-11-18T09:06:07;-0.10;99.90
20162;DHT22;51382;53.180;15.414;2022-11-18T09:21:21;0.00;99.90
20162;DHT22;51382;53.180;15.414;2022-11-18T09:36:33;0.20;99.90
20162;DHT22;51382;53.180;15.414;2022-11-18T09:51:45;0.40;99.90
20162;DHT22;51382;53.180;15.414;2022-11-18T10:06:57;0.70;99.90
20162;DHT22;51382;53.180;15.414;2022-11-18T10:22:15;0.90;99.90
20162;DHT22;51382;53.180;15.414;2022-11-18T10:37:33;1.30;99.90
20162;DHT22;51382;53.180;15.414;2022-11-18T10:52:51;1.40;99.90
20162;DHT22;51382;53.180;15.414;2022-11-18T11:08:03;1.50;99.90
20162;DHT22;51382;53.180;15.414;2022-11-18T11:23:33;2.10;99.90
20162;DHT22;51382;53.180;15.414;2022-11-18T11:38:48;2.20;99.90
20162;DHT22;51382;53.180;15.414;2022-11-18T11:54:17;2.10;99.90
20162;DHT22;51382;53.180;15.414;2022-11-18T12:09:42;2.10;99.90
20162;DHT22;51382;53.180;15.414;2022-11-18T12:24:54;2.40;99.90
20162;DHT22;51382;53.180;15.414;2022-11-18T12:40:06;2.30;99.90
20162;DHT22;51382;53.180;15.414;2022-11-18T12:55:19;2.40;99.90
20162;DHT22;51382;53.180;15.414;2022-11-18T13:10:33;2.00;99.90
20162;DHT22;51382;53.180;15.414;2022-11-18T13:25:48;2.00;99.90
20162;DHT22;51382;53.180;15.414;2022-11-18T13:40:59;1.90;99.90
20162;DHT22;51382;53.180;15.414;2022-11-18T13:56:16;1.90;99.90
20162;DHT22;51382;53.180;15.414;2022-11-18T14:11:35;1.50;99.90
20162;DHT22;51382;53.180;15.414;2022-11-18T14:26:48;1.30;99.90
20162;DHT22;51382;53.180;15.414;2022-11-18T14:41:58;1.00;99.90
20162;DHT22;51382;53.180;15.414;2022-11-18T14:57:11;0.60;99.90
20162;DHT22;51382;53.180;15.414;2022-11-18T15:12:25;0.10;99.90
20162;DHT22;51382;53.180;15.414;2022-11-18T15:27:36;-0.20;99.90
20162;DHT22;51382;53.180;15.414;2022-11-18T15:42:47;-0.50;99.90
20162;DHT22;51382;53.180;15.414;2022-11-18T15:57:58;-0.60;99.90
20162;DHT22;51382;53.180;15.414;2022-11-18T16:13:09;-1.00;99.90
20162;DHT22;51382;53.180;15.414;2022-11-18T16:28:21;-0.90;99.90
20162;DHT22;51382;53.180;15.414;2022-11-18T16:43:32;-1.40;99.90
20162;DHT22;51382;53.180;15.414;2022-11-18T16:58:43;-2.00;99.90
20162;DHT22;51382;53.180;15.414;2022-11-18T17:13:49;-2.40;99.90
20162;DHT22;51382;53.180;15.414;2022-11-18T17:29:03;-2.70;99.90
20162;DHT22;51382;53.180;15.414;2022-11-18T17:44:12;-2.60;99.90
20162;DHT22;51382;53.180;15.414;2022-11-18T17:59:25;-2.20;99.90
20162;DHT22;51382;53.180;15.414;2022-11-18T18:14:40;-2.10;99.90
20162;DHT22;51382;53.180;15.414;2022-11-18T18:29:48;-2.60;99.90
20162;DHT22;51382;53.180;15.414;2022-11-18T18:45:04;-2.50;99.90
20162;DHT22;51382;53.180;15.414;2022-11-18T19:00:32;-2.60;99.90
20162;DHT22;51382;53.180;15.414;2022-11-18T19:15:47;-2.60;99.90
20162;DHT22;51382;53.180;15.414;2022-11-18T19:30:59;-2.70;99.90
20162;DHT22;51382;53.180;15.414;2022-11-18T19:46:12;-2.50;99.90
20162;DHT22;51382;53.180;15.414;2022-11-18T20:01:27;-2.40;99.90
20162;DHT22;51382;53.180;15.414;2022-11-18T20:16:58;-2.50;99.90
20162;DHT22;51382;53.180;15.414;2022-11-18T20:32:12;-3.20;99.90
20162;DHT22;51382;53.180;15.414;2022-11-18T20:47:26;-3.90;99.90
20162;DHT22;51382;53.180;15.414;2022-11-18T21:02:38;-4.00;99.90
20162;DHT22;51382;53.180;15.414;2022-11-18T21:17:50;-4.00;99.90
20162;DHT22;51382;53.180;15.414;2022-11-18T21:33:17;-4.10;99.90
20162;DHT22;51382;53.180;15.414;2022-11-18T21:48:27;-4.10;99.90
20162;DHT22;51382;53.180;15.414;2022-11-18T22:03:37;-4.40;99.90
20162;DHT22;51382;53.180;15.414;2022-11-18T22:18:50;-4.60;99.90
20162;DHT22;51382;53.180;15.414;2022-11-18T22:33:57;-4.80;99.90
20162;DHT22;51382;53.180;15.414;2022-11-18T22:49:10;-5.00;99.90
20162;DHT22;51382;53.180;15.414;2022-11-18T23:04:22;-5.10;99.90
20162;DHT22;51382;53.180;15.414;2022-11-18T23:19:33;-5.20;99.90
20162;DHT22;51382;53.180;15.414;2022-11-18T23:34:48;-5.30;99.90
20162;DHT22;51382;53.180;15.414;2022-11-18T23:49:54;-5.30;99.90
